x

Port Colborne (45142) Wave Buoy

8:00am - Thu 23rd Oct 2014 All times are CDT. -5 hours from GMT.

  • Sig Wave height 1.6ft
  • Peak Period 3s
  • Wind
    16mph, 18mph gusts
  • Sea Temp 58°f
  • Air Temp 49°f
  • Sea Pressure 1021mb
  • Port Colborne
  • Port Colborne

More Historic Weather Station data

Upgrade to MSW Pro to gain access to the past 30 days of data for over 8000 Wavebouys and Weather Stations around the globe.

Join Pro

Comparision Forecast

View Surf forecast
   
Thu 10/23 8:00am 1.6ft 3s 16 18 mph 1021mb 58f 49f
7:00am 1.6ft 3s 18 22 mph 1021.2mb 58f 48f
6:00am 1.6ft 3s 18 20 mph 1021.2mb 58f 48f
5:00am 1.6ft 3s 18 22 mph 1021.2mb 58f 49f
4:00am 1.6ft 3s 18 22 mph 1021.2mb 58f 49f
3:00am 1.3ft 3s 18 20 mph 1021.1mb 58f 49f
2:00am 1.3ft 3s 18 20 mph 1021.3mb 58f 49f
1:00am 1.3ft 3s 16 18 mph 1021.3mb 58f 50f
12:00am 1ft 3s 16 18 mph 1021.7mb 58f 51f
Wed 10/22 11:00pm 1ft 3s 13 18 mph 1022.1mb 58f 51f
10:00pm 1ft 2s 13 18 mph 1022.7mb 58f 50f
9:00pm 0.3ft 2s 13 16 mph 1023.1mb 58f 51f
8:00pm 0.3ft 2s 9 11 mph 1023.5mb 58f 51f
7:00pm 0.7ft 2s 7 9 mph 1023.5mb 58f 51f
6:00pm 0.7ft 3s 4 7 mph 1023.5mb 58f 50f
5:00pm 1ft 2s 11 13 mph 1023.4mb 58f 49f
4:00pm 1ft 3s 13 18 mph 1023.4mb 58f 49f
3:00pm 1.3ft 3s 11 13 mph 1023.7mb 58f 48f
2:00pm 1.3ft 3s 13 18 mph 1023.6mb 58f 48f
1:00pm 1.3ft 3s 13 18 mph 1023.5mb 58f 49f
12:00pm 1.6ft 3s 13 16 mph 1023.7mb 58f 47f
11:00am 1.6ft 3s 13 18 mph 1024.4mb 58f 47f
10:00am 1.6ft 3s 16 20 mph 1024.2mb 58f 46f
9:00am 1.6ft 3s 16 18 mph 1023.9mb 58f 46f
8:00am 2ft 3s 18 20 mph 1023.5mb 58f 46f
7:00am 1.6ft 3s 18 20 mph 1023.1mb 58f 47f
6:00am 2ft 3s 18 22 mph 1022.2mb 58f 47f
5:00am 2ft 3s 18 25 mph 1021.7mb 58f 47f
3:00am 2.5ft 4s 22 27 mph 1020.3mb 58f 47f
2:00am 2.5ft 3s 20 27 mph 1020mb 58f 47f
1:00am 2.5ft 4s 22 27 mph 1019.9mb 58f 47f
12:00am 2.5ft 3s 22 27 mph 1019.6mb 58f 47f
Tue 10/21 11:00pm 2.5ft 3s 20 27 mph 1019.5mb 58f 47f
10:00pm 2.5ft 4s 22 27 mph 1019.4mb 58f 47f
9:00pm 3ft 4s 22 27 mph 1018.7mb 58f 48f
8:00pm 3ft 4s 27 31 mph 1017.6mb 58f 49f
7:00pm 2.5ft 4s 22 29 mph 1016.7mb 58f 49f
6:00pm 2.5ft 4s 22 27 mph 1016mb 58f 49f
5:00pm 2.5ft 3s 25 27 mph 1014.7mb 58f 49f
4:00pm 2.5ft 4s 20 25 mph 1014mb 58f 50f
3:00pm 2ft 3s 20 25 mph 1013.1mb 58f 50f
2:00pm 1.6ft 5s 20 25 mph 1012.2mb 59f 51f
1:00pm 1.6ft 5s 7 9 mph 1011.9mb 59f 53f
12:00pm 1.3ft 5s 4 7 mph 1011.7mb 59f 53f
11:00am 1.3ft 5s 4 7 mph 1011.7mb 59f 53f
10:00am 1.6ft 6s 7 9 mph 1011.4mb 58f 52f
9:00am 1.6ft 5s 7 9 mph 1010.9mb 58f 52f
8:00am 1.6ft 5s 9 11 mph 1010.7mb 58f 53f
7:00am 1.6ft 6s 11 13 mph 1010.4mb 58f 53f
6:00am 1.6ft 4s 13
mph
1009.6mb 58f 53f
5:00am 2ft 6s 13 16 mph 1009.1mb 58f 53f
4:00am 2ft 6s 11 13 mph 1008.9mb 58f 53f
3:00am 2.5ft 5s 13 16 mph 1008.6mb 58f 53f
2:00am 2.5ft 5s 13 18 mph 1008.4mb 58f 53f
1:00am 3.5ft 5s 13 16 mph 1008.3mb 59f 54f
12:00am 3.5ft 5s 22 25 mph 1008mb 59f 54f
Mon 10/20 11:00pm 3.5ft 5s 20 25 mph 1008.6mb 59f 54f
10:00pm 3.5ft 5s 18 22 mph 1009.1mb 59f 55f
9:00pm 3.5ft 4s 20 25 mph 1009.3mb 59f 56f
8:00pm 3.5ft 5s 22 29 mph 1009.4mb 59f 56f
7:00pm 3.5ft 5s 20 25 mph 1009.6mb 59f 56f
6:00pm 3.5ft 5s 22 27 mph 1009.4mb 59f 57f
5:00pm 3.5ft 5s 16 18 mph 1009.2mb 59f 57f
4:00pm 3.5ft 6s 18 22 mph 1009mb 60f 58f
3:00pm 3.5ft 5s 18 22 mph 1009.1mb 60f 57f
2:00pm 3.5ft 5s 20 25 mph 1009.4mb 60f 57f
1:00pm 3.5ft 5s 18 22 mph 1010mb 59f 55f
12:00pm 3.5ft 6s 20 25 mph 1010.6mb 59f 54f
11:00am 4ft 6s 20 25 mph 1011.4mb 59f 54f
10:00am 4.5ft 5s 20 25 mph 1011.9mb 59f 53f
9:00am 4ft 6s 22 27 mph 1012.2mb 59f 54f
8:00am 4ft 5s 20 25 mph 1012.6mb 59f 53f
7:00am 4ft 5s 20 25 mph 1012.8mb 59f 53f
6:00am 3.5ft 5s 20 25 mph 1012.8mb 59f 53f
5:00am 3.5ft 5s 18 22 mph 1013.3mb 59f 53f
4:00am 4ft 5s 18 22 mph 1013.5mb 59f 53f
3:00am 4ft 5s 18 22 mph 1014.2mb 59f 53f
2:00am 3.5ft 5s 20 25 mph 1014.7mb 59f 53f
1:00am 3.5ft 5s 20 25 mph 1015.1mb 59f 53f
12:00am 3.5ft 5s 20 25 mph 1015.3mb 59f 53f
Sun 10/19 9:00pm 3.5ft 5s 18 25 mph 1016.4mb 59f 52f
8:00pm 3ft 5s 18 22 mph 1016.9mb 59f 51f
7:00pm 3ft 4s 18 20 mph 1017.5mb 59f 50f
6:00pm 2.5ft 4s 18 22 mph 1017.9mb 59f 49f
5:00pm 2.5ft 4s 18 22 mph 1018.1mb 59f 49f
4:00pm 2ft 4s 16 22 mph 1018.6mb 59f 48f
3:00pm 1.6ft 3s 18 22 mph 1019.1mb 60f 47f